sensor_id;sensor_type;location;lat;lon;timestamp;P1;durP1;ratioP1;P2;durP2;ratioP2
6306;SDS011;3186;54.062;9.962;2023-04-24T00:00:54;4.07;;;3.77;;
6306;SDS011;3186;54.062;9.962;2023-04-24T00:03:22;5.03;;;3.90;;
6306;SDS011;3186;54.062;9.962;2023-04-24T00:05:49;5.40;;;4.03;;
6306;SDS011;3186;54.062;9.962;2023-04-24T00:08:15;5.00;;;3.87;;
6306;SDS011;3186;54.062;9.962;2023-04-24T00:10:41;5.37;;;3.83;;
6306;SDS011;3186;54.062;9.962;2023-04-24T00:13:07;4.33;;;3.53;;
6306;SDS011;3186;54.062;9.962;2023-04-24T00:15:32;4.77;;;4.03;;
6306;SDS011;3186;54.062;9.962;2023-04-24T00:17:58;4.57;;;4.07;;
6306;SDS011;3186;54.062;9.962;2023-04-24T00:20:26;5.47;;;4.20;;
6306;SDS011;3186;54.062;9.962;2023-04-24T00:22:54;4.47;;;3.50;;
6306;SDS011;3186;54.062;9.962;2023-04-24T00:25:21;4.20;;;3.80;;
6306;SDS011;3186;54.062;9.962;2023-04-24T00:27:47;5.43;;;3.40;;
6306;SDS011;3186;54.062;9.962;2023-04-24T00:30:12;4.13;;;3.70;;
6306;SDS011;3186;54.062;9.962;2023-04-24T00:32:38;5.87;;;3.60;;
6306;SDS011;3186;54.062;9.962;2023-04-24T00:35:04;3.43;;;3.10;;
6306;SDS011;3186;54.062;9.962;2023-04-24T00:37:31;3.67;;;3.37;;
6306;SDS011;3186;54.062;9.962;2023-04-24T00:39:57;5.90;;;3.77;;
6306;SDS011;3186;54.062;9.962;2023-04-24T00:42:23;4.90;;;3.83;;
6306;SDS011;3186;54.062;9.962;2023-04-24T00:44:49;5.87;;;3.73;;
6306;SDS011;3186;54.062;9.962;2023-04-24T00:47:16;4.10;;;3.70;;
6306;SDS011;3186;54.062;9.962;2023-04-24T00:49:42;5.73;;;3.73;;
6306;SDS011;3186;54.062;9.962;2023-04-24T00:52:08;5.97;;;3.57;;
6306;SDS011;3186;54.062;9.962;2023-04-24T00:54:34;7.30;;;3.70;;
6306;SDS011;3186;54.062;9.962;2023-04-24T00:57:01;4.07;;;3.27;;
6306;SDS011;3186;54.062;9.962;2023-04-24T00:59:32;3.60;;;3.17;;
6306;SDS011;3186;54.062;9.962;2023-04-24T01:01:58;3.83;;;3.43;;
6306;SDS011;3186;54.062;9.962;2023-04-24T01:04:24;5.07;;;3.50;;
6306;SDS011;3186;54.062;9.962;2023-04-24T01:06:51;4.27;;;3.10;;
6306;SDS011;3186;54.062;9.962;2023-04-24T01:09:18;4.63;;;3.10;;
6306;SDS011;3186;54.062;9.962;2023-04-24T01:11:46;3.60;;;3.30;;
6306;SDS011;3186;54.062;9.962;2023-04-24T01:14:12;3.57;;;3.20;;
6306;SDS011;3186;54.062;9.962;2023-04-24T01:16:38;4.47;;;3.40;;
6306;SDS011;3186;54.062;9.962;2023-04-24T01:19:05;4.40;;;3.10;;
6306;SDS011;3186;54.062;9.962;2023-04-24T01:21:32;3.40;;;3.10;;
6306;SDS011;3186;54.062;9.962;2023-04-24T01:24:02;4.87;;;3.50;;
6306;SDS011;3186;54.062;9.962;2023-04-24T01:26:28;3.57;;;2.90;;
6306;SDS011;3186;54.062;9.962;2023-04-24T01:28:54;3.57;;;3.23;;
6306;SDS011;3186;54.062;9.962;2023-04-24T01:31:21;3.40;;;2.90;;
6306;SDS011;3186;54.062;9.962;2023-04-24T01:33:47;3.63;;;3.23;;
6306;SDS011;3186;54.062;9.962;2023-04-24T01:36:14;3.60;;;3.30;;
6306;SDS011;3186;54.062;9.962;2023-04-24T01:38:41;6.10;;;3.70;;
6306;SDS011;3186;54.062;9.962;2023-04-24T01:41:07;4.53;;;2.93;;
6306;SDS011;3186;54.062;9.962;2023-04-24T01:43:33;3.63;;;3.30;;
6306;SDS011;3186;54.062;9.962;2023-04-24T01:45:59;4.73;;;3.30;;
6306;SDS011;3186;54.062;9.962;2023-04-24T01:48:25;3.50;;;3.20;;
6306;SDS011;3186;54.062;9.962;2023-04-24T01:50:51;5.27;;;3.20;;
6306;SDS011;3186;54.062;9.962;2023-04-24T01:53:17;5.57;;;3.90;;
6306;SDS011;3186;54.062;9.962;2023-04-24T01:55:43;3.33;;;3.03;;
6306;SDS011;3186;54.062;9.962;2023-04-24T01:58:11;3.73;;;3.00;;
6306;SDS011;3186;54.062;9.962;2023-04-24T02:00:37;4.30;;;3.50;;
6306;SDS011;3186;54.062;9.962;2023-04-24T02:03:03;3.70;;;3.30;;
6306;SDS011;3186;54.062;9.962;2023-04-24T02:05:29;6.40;;;3.70;;
6306;SDS011;3186;54.062;9.962;2023-04-24T02:07:55;3.30;;;2.80;;
6306;SDS011;3186;54.062;9.962;2023-04-24T02:10:20;3.40;;;3.10;;
6306;SDS011;3186;54.062;9.962;2023-04-24T02:12:47;3.50;;;3.20;;
6306;SDS011;3186;54.062;9.962;2023-04-24T02:15:14;3.43;;;2.97;;
6306;SDS011;3186;54.062;9.962;2023-04-24T02:17:40;3.07;;;2.87;;
6306;SDS011;3186;54.062;9.962;2023-04-24T02:20:06;4.13;;;3.27;;
6306;SDS011;3186;54.062;9.962;2023-04-24T02:22:32;2.70;;;2.50;;
6306;SDS011;3186;54.062;9.962;2023-04-24T02:25:00;4.27;;;3.83;;
6306;SDS011;3186;54.062;9.962;2023-04-24T02:27:27;5.63;;;3.83;;
6306;SDS011;3186;54.062;9.962;2023-04-24T02:29:52;6.30;;;4.03;;
6306;SDS011;3186;54.062;9.962;2023-04-24T02:32:18;5.80;;;3.50;;
6306;SDS011;3186;54.062;9.962;2023-04-24T02:34:44;3.67;;;3.20;;
6306;SDS011;3186;54.062;9.962;2023-04-24T02:37:11;3.80;;;3.50;;
6306;SDS011;3186;54.062;9.962;2023-04-24T02:39:37;6.57;;;3.20;;
6306;SDS011;3186;54.062;9.962;2023-04-24T02:42:02;4.40;;;4.00;;
6306;SDS011;3186;54.062;9.962;2023-04-24T02:44:29;3.63;;;3.33;;
6306;SDS011;3186;54.062;9.962;2023-04-24T02:46:55;3.73;;;3.20;;
6306;SDS011;3186;54.062;9.962;2023-04-24T02:49:22;5.93;;;3.20;;
6306;SDS011;3186;54.062;9.962;2023-04-24T02:51:47;3.37;;;3.07;;
6306;SDS011;3186;54.062;9.962;2023-04-24T02:54:13;3.40;;;3.07;;
6306;SDS011;3186;54.062;9.962;2023-04-24T02:56:39;4.93;;;3.50;;
6306;SDS011;3186;54.062;9.962;2023-04-24T02:59:07;4.17;;;3.70;;
6306;SDS011;3186;54.062;9.962;2023-04-24T03:01:33;3.97;;;3.20;;
6306;SDS011;3186;54.062;9.962;2023-04-24T03:03:58;4.23;;;3.40;;
6306;SDS011;3186;54.062;9.962;2023-04-24T03:06:25;6.07;;;3.50;;
6306;SDS011;3186;54.062;9.962;2023-04-24T03:08:52;4.60;;;3.80;;
6306;SDS011;3186;54.062;9.962;2023-04-24T03:11:18;5.60;;;3.17;;
6306;SDS011;3186;54.062;9.962;2023-04-24T03:13:44;4.77;;;3.70;;
6306;SDS011;3186;54.062;9.962;2023-04-24T03:16:10;7.20;;;3.50;;
6306;SDS011;3186;54.062;9.962;2023-04-24T03:18:36;5.80;;;3.60;;
6306;SDS011;3186;54.062;9.962;2023-04-24T03:21:04;3.90;;;3.20;;
6306;SDS011;3186;54.062;9.962;2023-04-24T03:23:30;3.70;;;3.37;;
6306;SDS011;3186;54.062;9.962;2023-04-24T03:25:56;3.77;;;3.10;;
6306;SDS011;3186;54.062;9.962;2023-04-24T03:28:22;3.57;;;3.23;;
6306;SDS011;3186;54.062;9.962;2023-04-24T03:30:54;2.70;;;2.50;;
6306;SDS011;3186;54.062;9.962;2023-04-24T03:33:22;3.10;;;2.80;;
6306;SDS011;3186;54.062;9.962;2023-04-24T03:35:57;4.03;;;2.90;;
6306;SDS011;3186;54.062;9.962;2023-04-24T03:38:24;3.73;;;2.80;;
6306;SDS011;3186;54.062;9.962;2023-04-24T03:40:59;3.93;;;2.90;;
6306;SDS011;3186;54.062;9.962;2023-04-24T03:43:35;3.00;;;2.70;;
6306;SDS011;3186;54.062;9.962;2023-04-24T03:46:01;3.67;;;2.80;;
6306;SDS011;3186;54.062;9.962;2023-04-24T03:48:29;3.37;;;2.90;;
6306;SDS011;3186;54.062;9.962;2023-04-24T03:50:56;3.40;;;3.10;;
6306;SDS011;3186;54.062;9.962;2023-04-24T03:53:21;2.67;;;2.47;;
6306;SDS011;3186;54.062;9.962;2023-04-24T03:55:48;2.77;;;2.57;;
6306;SDS011;3186;54.062;9.962;2023-04-24T03:58:14;3.93;;;2.63;;
6306;SDS011;3186;54.062;9.962;2023-04-24T04:00:40;3.57;;;2.33;;
6306;SDS011;3186;54.062;9.962;2023-04-24T04:03:24;2.53;;;2.20;;
6306;SDS011;3186;54.062;9.962;2023-04-24T04:05:50;3.20;;;2.60;;
6306;SDS011;3186;54.062;9.962;2023-04-24T04:08:16;2.47;;;2.03;;
6306;SDS011;3186;54.062;9.962;2023-04-24T04:10:42;2.23;;;2.03;;
6306;SDS011;3186;54.062;9.962;2023-04-24T04:13:08;2.33;;;2.20;;
6306;SDS011;3186;54.062;9.962;2023-04-24T04:15:34;2.57;;;2.10;;
6306;SDS011;3186;54.062;9.962;2023-04-24T04:18:01;2.63;;;2.17;;
6306;SDS011;3186;54.062;9.962;2023-04-24T04:20:27;2.30;;;2.10;;
6306;SDS011;3186;54.062;9.962;2023-04-24T04:22:53;3.33;;;2.03;;
6306;SDS011;3186;54.062;9.962;2023-04-24T04:25:27;2.30;;;1.90;;
6306;SDS011;3186;54.062;9.962;2023-04-24T04:27:52;2.27;;;2.17;;
6306;SDS011;3186;54.062;9.962;2023-04-24T04:30:18;2.87;;;1.83;;
6306;SDS011;3186;54.062;9.962;2023-04-24T04:32:53;2.67;;;1.97;;
6306;SDS011;3186;54.062;9.962;2023-04-24T04:35:20;1.83;;;1.70;;
6306;SDS011;3186;54.062;9.962;2023-04-24T04:37:46;1.87;;;1.70;;
6306;SDS011;3186;54.062;9.962;2023-04-24T04:40:38;11.77;;;5.57;;
6306;SDS011;3186;54.062;9.962;2023-04-24T04:43:05;7.23;;;3.67;;
6306;SDS011;3186;54.062;9.962;2023-04-24T04:45:39;3.17;;;1.90;;
6306;SDS011;3186;54.062;9.962;2023-04-24T04:48:34;3.70;;;1.83;;
6306;SDS011;3186;54.062;9.962;2023-04-24T04:51:03;2.87;;;1.70;;
6306;SDS011;3186;54.062;9.962;2023-04-24T04:53:29;3.53;;;3.00;;
6306;SDS011;3186;54.062;9.962;2023-04-24T04:55:55;2.17;;;1.97;;
6306;SDS011;3186;54.062;9.962;2023-04-24T04:58:26;1.67;;;1.57;;
6306;SDS011;3186;54.062;9.962;2023-04-24T05:00:56;3.37;;;1.70;;
6306;SDS011;3186;54.062;9.962;2023-04-24T05:03:30;2.43;;;2.03;;
6306;SDS011;3186;54.062;9.962;2023-04-24T05:06:05;2.47;;;2.27;;
6306;SDS011;3186;54.062;9.962;2023-04-24T05:08:34;2.70;;;2.50;;
6306;SDS011;3186;54.062;9.962;2023-04-24T05:11:01;2.40;;;2.20;;
6306;SDS011;3186;54.062;9.962;2023-04-24T05:13:29;3.50;;;2.33;;
6306;SDS011;3186;54.062;9.962;2023-04-24T05:15:55;3.40;;;1.67;;
6306;SDS011;3186;54.062;9.962;2023-04-24T05:18:21;2.07;;;1.90;;
6306;SDS011;3186;54.062;9.962;2023-04-24T05:20:48;2.40;;;2.20;;
6306;SDS011;3186;54.062;9.962;2023-04-24T05:23:14;2.50;;;2.30;;
6306;SDS011;3186;54.062;9.962;2023-04-24T05:25:42;2.63;;;2.13;;
6306;SDS011;3186;54.062;9.962;2023-04-24T05:28:11;2.83;;;2.23;;
6306;SDS011;3186;54.062;9.962;2023-04-24T05:30:37;2.50;;;2.30;;
6306;SDS011;3186;54.062;9.962;2023-04-24T05:33:03;2.07;;;1.97;;
6306;SDS011;3186;54.062;9.962;2023-04-24T05:35:32;2.67;;;2.20;;
6306;SDS011;3186;54.062;9.962;2023-04-24T05:37:58;5.33;;;2.47;;
6306;SDS011;3186;54.062;9.962;2023-04-24T05:40:25;2.57;;;2.37;;
6306;SDS011;3186;54.062;9.962;2023-04-24T05:42:55;3.20;;;2.17;;
6306;SDS011;3186;54.062;9.962;2023-04-24T05:45:23;2.30;;;2.10;;
6306;SDS011;3186;54.062;9.962;2023-04-24T05:47:49;3.83;;;2.30;;
6306;SDS011;3186;54.062;9.962;2023-04-24T05:50:17;2.13;;;2.00;;
6306;SDS011;3186;54.062;9.962;2023-04-24T05:52:43;2.90;;;2.03;;
6306;SDS011;3186;54.062;9.962;2023-04-24T05:55:21;2.70;;;2.03;;
6306;SDS011;3186;54.062;9.962;2023-04-24T05:57:47;3.13;;;2.57;;
6306;SDS011;3186;54.062;9.962;2023-04-24T06:00:13;2.67;;;2.37;;
6306;SDS011;3186;54.062;9.962;2023-04-24T06:02:44;2.63;;;2.43;;
6306;SDS011;3186;54.062;9.962;2023-04-24T06:05:12;2.70;;;2.00;;
6306;SDS011;3186;54.062;9.962;2023-04-24T06:07:38;2.30;;;1.80;;
6306;SDS011;3186;54.062;9.962;2023-04-24T06:10:06;2.33;;;2.07;;
6306;SDS011;3186;54.062;9.962;2023-04-24T06:12:38;4.20;;;2.10;;
6306;SDS011;3186;54.062;9.962;2023-04-24T06:15:09;3.63;;;2.30;;
6306;SDS011;3186;54.062;9.962;2023-04-24T06:17:55;2.87;;;2.50;;
6306;SDS011;3186;54.062;9.962;2023-04-24T06:20:21;2.23;;;1.93;;
6306;SDS011;3186;54.062;9.962;2023-04-24T06:22:48;2.33;;;2.13;;
6306;SDS011;3186;54.062;9.962;2023-04-24T06:25:13;5.23;;;2.03;;
6306;SDS011;3186;54.062;9.962;2023-04-24T06:27:39;2.57;;;2.37;;
6306;SDS011;3186;54.062;9.962;2023-04-24T06:30:07;2.77;;;2.00;;
6306;SDS011;3186;54.062;9.962;2023-04-24T06:32:33;2.77;;;1.90;;
6306;SDS011;3186;54.062;9.962;2023-04-24T06:34:59;2.27;;;2.07;;
6306;SDS011;3186;54.062;9.962;2023-04-24T06:37:25;2.50;;;2.30;;
6306;SDS011;3186;54.062;9.962;2023-04-24T06:39:51;2.30;;;1.80;;
6306;SDS011;3186;54.062;9.962;2023-04-24T06:42:17;2.03;;;1.80;;
6306;SDS011;3186;54.062;9.962;2023-04-24T06:44:47;1.67;;;1.57;;
6306;SDS011;3186;54.062;9.962;2023-04-24T06:47:13;2.70;;;2.03;;
6306;SDS011;3186;54.062;9.962;2023-04-24T06:49:39;2.20;;;2.00;;
6306;SDS011;3186;54.062;9.962;2023-04-24T06:52:05;2.53;;;1.80;;
6306;SDS011;3186;54.062;9.962;2023-04-24T06:54:31;3.20;;;2.33;;
6306;SDS011;3186;54.062;9.962;2023-04-24T06:56:57;2.00;;;1.90;;
6306;SDS011;3186;54.062;9.962;2023-04-24T06:59:24;1.83;;;1.73;;
6306;SDS011;3186;54.062;9.962;2023-04-24T07:01:50;2.50;;;1.60;;
6306;SDS011;3186;54.062;9.962;2023-04-24T07:04:16;1.73;;;1.50;;
6306;SDS011;3186;54.062;9.962;2023-04-24T07:06:43;2.50;;;1.83;;
6306;SDS011;3186;54.062;9.962;2023-04-24T07:09:11;2.33;;;1.60;;
6306;SDS011;3186;54.062;9.962;2023-04-24T07:11:38;2.23;;;1.80;;
6306;SDS011;3186;54.062;9.962;2023-04-24T07:14:06;3.83;;;1.87;;
6306;SDS011;3186;54.062;9.962;2023-04-24T07:16:32;2.77;;;1.73;;
6306;SDS011;3186;54.062;9.962;2023-04-24T07:18:58;3.07;;;2.03;;
6306;SDS011;3186;54.062;9.962;2023-04-24T07:21:23;3.80;;;1.80;;
6306;SDS011;3186;54.062;9.962;2023-04-24T07:23:50;3.87;;;1.97;;
6306;SDS011;3186;54.062;9.962;2023-04-24T07:26:16;4.33;;;1.90;;
6306;SDS011;3186;54.062;9.962;2023-04-24T07:28:42;1.90;;;1.70;;
6306;SDS011;3186;54.062;9.962;2023-04-24T07:31:08;2.77;;;1.83;;
6306;SDS011;3186;54.062;9.962;2023-04-24T07:33:36;2.87;;;1.90;;
6306;SDS011;3186;54.062;9.962;2023-04-24T07:36:03;3.37;;;2.00;;
6306;SDS011;3186;54.062;9.962;2023-04-24T07:38:29;1.50;;;1.30;;
6306;SDS011;3186;54.062;9.962;2023-04-24T07:40:56;2.80;;;1.93;;
6306;SDS011;3186;54.062;9.962;2023-04-24T07:43:22;2.90;;;1.70;;
6306;SDS011;3186;54.062;9.962;2023-04-24T07:45:49;1.77;;;1.67;;
6306;SDS011;3186;54.062;9.962;2023-04-24T07:48:16;3.37;;;2.00;;
6306;SDS011;3186;54.062;9.962;2023-04-24T07:50:43;2.33;;;2.13;;
6306;SDS011;3186;54.062;9.962;2023-04-24T07:53:09;1.80;;;1.70;;
6306;SDS011;3186;54.062;9.962;2023-04-24T07:55:35;2.50;;;2.30;;
6306;SDS011;3186;54.062;9.962;2023-04-24T07:58:01;2.40;;;2.13;;
6306;SDS011;3186;54.062;9.962;2023-04-24T08:00:27;2.37;;;2.17;;
6306;SDS011;3186;54.062;9.962;2023-04-24T08:02:53;2.90;;;2.40;;
6306;SDS011;3186;54.062;9.962;2023-04-24T08:05:19;4.10;;;2.13;;
6306;SDS011;3186;54.062;9.962;2023-04-24T08:07:45;2.90;;;2.70;;
6306;SDS011;3186;54.062;9.962;2023-04-24T08:10:13;5.37;;;2.77;;
6306;SDS011;3186;54.062;9.962;2023-04-24T08:12:40;7.20;;;3.07;;
6306;SDS011;3186;54.062;9.962;2023-04-24T08:15:06;3.17;;;2.50;;
6306;SDS011;3186;54.062;9.962;2023-04-24T08:17:33;3.97;;;2.50;;
6306;SDS011;3186;54.062;9.962;2023-04-24T08:20:00;3.93;;;2.87;;
6306;SDS011;3186;54.062;9.962;2023-04-24T08:22:29;3.23;;;2.83;;
6306;SDS011;3186;54.062;9.962;2023-04-24T08:24:56;2.50;;;2.30;;
6306;SDS011;3186;54.062;9.962;2023-04-24T08:27:22;4.37;;;2.70;;
6306;SDS011;3186;54.062;9.962;2023-04-24T08:29:49;3.07;;;2.70;;
6306;SDS011;3186;54.062;9.962;2023-04-24T08:32:15;3.43;;;3.13;;
6306;SDS011;3186;54.062;9.962;2023-04-24T08:34:41;3.33;;;3.03;;
6306;SDS011;3186;54.062;9.962;2023-04-24T08:37:06;3.80;;;3.10;;
6306;SDS011;3186;54.062;9.962;2023-04-24T08:39:32;3.93;;;2.70;;
6306;SDS011;3186;54.062;9.962;2023-04-24T08:41:58;3.47;;;3.17;;
6306;SDS011;3186;54.062;9.962;2023-04-24T08:44:33;3.07;;;2.80;;
6306;SDS011;3186;54.062;9.962;2023-04-24T08:47:03;3.00;;;2.67;;
6306;SDS011;3186;54.062;9.962;2023-04-24T08:49:30;5.83;;;2.97;;
6306;SDS011;3186;54.062;9.962;2023-04-24T08:51:56;2.73;;;2.53;;
6306;SDS011;3186;54.062;9.962;2023-04-24T08:54:22;3.97;;;2.53;;
6306;SDS011;3186;54.062;9.962;2023-04-24T08:56:50;3.87;;;3.33;;
6306;SDS011;3186;54.062;9.962;2023-04-24T08:59:18;4.73;;;3.73;;
6306;SDS011;3186;54.062;9.962;2023-04-24T09:01:45;4.57;;;4.00;;
6306;SDS011;3186;54.062;9.962;2023-04-24T09:04:12;3.63;;;3.30;;
6306;SDS011;3186;54.062;9.962;2023-04-24T09:06:41;3.63;;;3.37;;
6306;SDS011;3186;54.062;9.962;2023-04-24T09:09:08;4.97;;;3.43;;
6306;SDS011;3186;54.062;9.962;2023-04-24T09:11:36;3.97;;;3.37;;
6306;SDS011;3186;54.062;9.962;2023-04-24T09:14:02;4.20;;;3.80;;
6306;SDS011;3186;54.062;9.962;2023-04-24T09:16:29;5.00;;;3.87;;
6306;SDS011;3186;54.062;9.962;2023-04-24T09:18:58;3.70;;;3.40;;
6306;SDS011;3186;54.062;9.962;2023-04-24T09:21:24;3.50;;;3.23;;
6306;SDS011;3186;54.062;9.962;2023-04-24T09:24:00;6.00;;;4.20;;
6306;SDS011;3186;54.062;9.962;2023-04-24T09:26:32;4.33;;;3.93;;
6306;SDS011;3186;54.062;9.962;2023-04-24T09:29:01;4.60;;;4.20;;
6306;SDS011;3186;54.062;9.962;2023-04-24T09:31:28;3.23;;;2.97;;
6306;SDS011;3186;54.062;9.962;2023-04-24T09:33:59;5.10;;;3.93;;
6306;SDS011;3186;54.062;9.962;2023-04-24T09:36:31;6.27;;;3.90;;
6306;SDS011;3186;54.062;9.962;2023-04-24T09:38:59;5.07;;;3.80;;
6306;SDS011;3186;54.062;9.962;2023-04-24T09:41:26;3.20;;;2.90;;
6306;SDS011;3186;54.062;9.962;2023-04-24T09:43:53;3.57;;;3.23;;
6306;SDS011;3186;54.062;9.962;2023-04-24T09:46:20;4.83;;;4.43;;
6306;SDS011;3186;54.062;9.962;2023-04-24T09:48:49;4.90;;;4.30;;
6306;SDS011;3186;54.062;9.962;2023-04-24T09:51:15;5.03;;;3.97;;
6306;SDS011;3186;54.062;9.962;2023-04-24T09:53:45;5.33;;;4.80;;
6306;SDS011;3186;54.062;9.962;2023-04-24T09:56:17;6.07;;;3.80;;
6306;SDS011;3186;54.062;9.962;2023-04-24T09:58:45;5.90;;;4.93;;
6306;SDS011;3186;54.062;9.962;2023-04-24T10:01:12;4.37;;;3.97;;
6306;SDS011;3186;54.062;9.962;2023-04-24T10:03:38;6.13;;;5.13;;
6306;SDS011;3186;54.062;9.962;2023-04-24T10:06:07;5.43;;;4.83;;
6306;SDS011;3186;54.062;9.962;2023-04-24T10:08:36;4.20;;;3.80;;
6306;SDS011;3186;54.062;9.962;2023-04-24T10:11:02;5.97;;;5.00;;
6306;SDS011;3186;54.062;9.962;2023-04-24T10:13:28;5.27;;;4.77;;
6306;SDS011;3186;54.062;9.962;2023-04-24T10:15:55;5.57;;;4.60;;
6306;SDS011;3186;54.062;9.962;2023-04-24T10:18:21;3.97;;;3.67;;
6306;SDS011;3186;54.062;9.962;2023-04-24T10:20:49;5.97;;;4.10;;
6306;SDS011;3186;54.062;9.962;2023-04-24T10:23:15;7.10;;;4.53;;
6306;SDS011;3186;54.062;9.962;2023-04-24T10:25:44;6.40;;;5.67;;
6306;SDS011;3186;54.062;9.962;2023-04-24T10:28:10;6.73;;;5.47;;
6306;SDS011;3186;54.062;9.962;2023-04-24T10:30:37;6.47;;;4.93;;
6306;SDS011;3186;54.062;9.962;2023-04-24T10:33:04;6.50;;;5.80;;
6306;SDS011;3186;54.062;9.962;2023-04-24T10:35:34;6.30;;;5.10;;
6306;SDS011;3186;54.062;9.962;2023-04-24T10:40:34;8.10;;;6.23;;
6306;SDS011;3186;54.062;9.962;2023-04-24T10:43:04;7.97;;;6.13;;
6306;SDS011;3186;54.062;9.962;2023-04-24T10:45:33;6.27;;;5.67;;
6306;SDS011;3186;54.062;9.962;2023-04-24T10:48:01;7.37;;;6.00;;
6306;SDS011;3186;54.062;9.962;2023-04-24T10:50:29;6.07;;;5.47;;
6306;SDS011;3186;54.062;9.962;2023-04-24T10:53:07;6.57;;;5.50;;
6306;SDS011;3186;54.062;9.962;2023-04-24T10:55:45;9.57;;;6.27;;
6306;SDS011;3186;54.062;9.962;2023-04-24T10:58:11;7.23;;;5.50;;
6306;SDS011;3186;54.062;9.962;2023-04-24T11:00:38;9.03;;;5.43;;
6306;SDS011;3186;54.062;9.962;2023-04-24T11:03:22;5.83;;;5.13;;
6306;SDS011;3186;54.062;9.962;2023-04-24T11:05:50;8.50;;;6.13;;
6306;SDS011;3186;54.062;9.962;2023-04-24T11:08:24;8.50;;;7.33;;
6306;SDS011;3186;54.062;9.962;2023-04-24T11:13:27;5.27;;;4.73;;
6306;SDS011;3186;54.062;9.962;2023-04-24T11:16:33;5.60;;;5.00;;
6306;SDS011;3186;54.062;9.962;2023-04-24T11:19:17;7.50;;;5.70;;
6306;SDS011;3186;54.062;9.962;2023-04-24T11:27:06;8.20;;;5.90;;
6306;SDS011;3186;54.062;9.962;2023-04-24T11:34:51;8.57;;;6.03;;
6306;SDS011;3186;54.062;9.962;2023-04-24T11:37:19;11.33;;;6.23;;
6306;SDS011;3186;54.062;9.962;2023-04-24T11:39:45;7.33;;;6.63;;
6306;SDS011;3186;54.062;9.962;2023-04-24T11:42:13;7.43;;;6.70;;
6306;SDS011;3186;54.062;9.962;2023-04-24T11:44:41;10.53;;;7.23;;
6306;SDS011;3186;54.062;9.962;2023-04-24T11:47:08;8.57;;;6.53;;
6306;SDS011;3186;54.062;9.962;2023-04-24T11:49:37;7.97;;;6.43;;
6306;SDS011;3186;54.062;9.962;2023-04-24T11:52:04;7.43;;;6.60;;
6306;SDS011;3186;54.062;9.962;2023-04-24T11:54:30;7.37;;;6.27;;
6306;SDS011;3186;54.062;9.962;2023-04-24T11:56:56;11.93;;;6.37;;
6306;SDS011;3186;54.062;9.962;2023-04-24T11:59:22;9.10;;;6.27;;
6306;SDS011;3186;54.062;9.962;2023-04-24T12:01:48;6.77;;;6.10;;
6306;SDS011;3186;54.062;9.962;2023-04-24T12:04:15;10.73;;;6.07;;
6306;SDS011;3186;54.062;9.962;2023-04-24T12:07:15;7.03;;;5.83;;
6306;SDS011;3186;54.062;9.962;2023-04-24T12:09:41;14.63;;;5.67;;
6306;SDS011;3186;54.062;9.962;2023-04-24T12:12:08;8.57;;;6.23;;
6306;SDS011;3186;54.062;9.962;2023-04-24T12:14:41;8.83;;;6.23;;
6306;SDS011;3186;54.062;9.962;2023-04-24T12:17:15;9.20;;;6.43;;
6306;SDS011;3186;54.062;9.962;2023-04-24T12:19:48;9.83;;;6.63;;
6306;SDS011;3186;54.062;9.962;2023-04-24T12:22:14;10.27;;;7.87;;
6306;SDS011;3186;54.062;9.962;2023-04-24T12:24:59;9.37;;;8.37;;
6306;SDS011;3186;54.062;9.962;2023-04-24T12:27:26;10.23;;;8.50;;
6306;SDS011;3186;54.062;9.962;2023-04-24T12:29:58;10.27;;;9.17;;
6306;SDS011;3186;54.062;9.962;2023-04-24T12:32:25;10.13;;;8.93;;
6306;SDS011;3186;54.062;9.962;2023-04-24T12:34:52;10.73;;;8.80;;
6306;SDS011;3186;54.062;9.962;2023-04-24T12:37:19;11.60;;;8.77;;
6306;SDS011;3186;54.062;9.962;2023-04-24T12:40:01;11.77;;;8.77;;
6306;SDS011;3186;54.062;9.962;2023-04-24T12:42:31;15.37;;;9.27;;
6306;SDS011;3186;54.062;9.962;2023-04-24T12:44:57;15.00;;;9.93;;
6306;SDS011;3186;54.062;9.962;2023-04-24T12:47:31;13.67;;;9.77;;
6306;SDS011;3186;54.062;9.962;2023-04-24T12:49:58;10.83;;;9.73;;
6306;SDS011;3186;54.062;9.962;2023-04-24T12:52:25;12.77;;;9.37;;
6306;SDS011;3186;54.062;9.962;2023-04-24T12:54:54;12.10;;;9.40;;
6306;SDS011;3186;54.062;9.962;2023-04-24T12:57:21;10.57;;;9.47;;
6306;SDS011;3186;54.062;9.962;2023-04-24T12:59:48;12.57;;;8.47;;
6306;SDS011;3186;54.062;9.962;2023-04-24T13:02:14;11.47;;;8.93;;
6306;SDS011;3186;54.062;9.962;2023-04-24T13:04:48;13.70;;;8.67;;
6306;SDS011;3186;54.062;9.962;2023-04-24T13:07:15;8.90;;;7.77;;
6306;SDS011;3186;54.062;9.962;2023-04-24T13:09:41;9.53;;;8.53;;
6306;SDS011;3186;54.062;9.962;2023-04-24T13:12:08;8.20;;;7.23;;
6306;SDS011;3186;54.062;9.962;2023-04-24T13:14:35;11.37;;;7.87;;
6306;SDS011;3186;54.062;9.962;2023-04-24T13:17:01;11.47;;;8.27;;
6306;SDS011;3186;54.062;9.962;2023-04-24T13:19:28;9.63;;;7.67;;
6306;SDS011;3186;54.062;9.962;2023-04-24T13:21:55;9.17;;;8.27;;
6306;SDS011;3186;54.062;9.962;2023-04-24T13:24:22;9.30;;;7.80;;
6306;SDS011;3186;54.062;9.962;2023-04-24T13:26:54;10.30;;;7.70;;
6306;SDS011;3186;54.062;9.962;2023-04-24T13:29:21;9.50;;;7.97;;
6306;SDS011;3186;54.062;9.962;2023-04-24T13:31:50;8.20;;;7.20;;
6306;SDS011;3186;54.062;9.962;2023-04-24T13:34:19;8.80;;;6.77;;
6306;SDS011;3186;54.062;9.962;2023-04-24T13:36:45;8.70;;;7.63;;
6306;SDS011;3186;54.062;9.962;2023-04-24T13:39:11;8.07;;;7.13;;
6306;SDS011;3186;54.062;9.962;2023-04-24T13:41:37;8.60;;;7.07;;
6306;SDS011;3186;54.062;9.962;2023-04-24T13:44:03;7.63;;;6.57;;
6306;SDS011;3186;54.062;9.962;2023-04-24T13:46:30;8.47;;;6.20;;
6306;SDS011;3186;54.062;9.962;2023-04-24T13:48:56;7.23;;;5.70;;
6306;SDS011;3186;54.062;9.962;2023-04-24T13:51:22;6.00;;;5.40;;
6306;SDS011;3186;54.062;9.962;2023-04-24T13:53:48;6.77;;;5.77;;
6306;SDS011;3186;54.062;9.962;2023-04-24T13:56:14;9.27;;;5.60;;
6306;SDS011;3186;54.062;9.962;2023-04-24T13:58:41;6.57;;;5.20;;
6306;SDS011;3186;54.062;9.962;2023-04-24T14:01:06;5.70;;;5.20;;
6306;SDS011;3186;54.062;9.962;2023-04-24T14:03:33;7.23;;;5.50;;
6306;SDS011;3186;54.062;9.962;2023-04-24T14:05:59;7.47;;;5.57;;
6306;SDS011;3186;54.062;9.962;2023-04-24T14:08:24;5.67;;;5.07;;
6306;SDS011;3186;54.062;9.962;2023-04-24T14:10:51;6.83;;;6.17;;
6306;SDS011;3186;54.062;9.962;2023-04-24T14:13:17;9.90;;;5.13;;
6306;SDS011;3186;54.062;9.962;2023-04-24T14:15:43;5.87;;;4.53;;
6306;SDS011;3186;54.062;9.962;2023-04-24T14:18:08;6.13;;;5.03;;
6306;SDS011;3186;54.062;9.962;2023-04-24T14:20:34;7.47;;;5.13;;
6306;SDS011;3186;54.062;9.962;2023-04-24T14:23:00;7.00;;;6.10;;
6306;SDS011;3186;54.062;9.962;2023-04-24T14:25:26;9.03;;;6.17;;
6306;SDS011;3186;54.062;9.962;2023-04-24T14:27:52;7.17;;;6.27;;
6306;SDS011;3186;54.062;9.962;2023-04-24T14:30:18;6.93;;;6.23;;
6306;SDS011;3186;54.062;9.962;2023-04-24T14:32:44;5.93;;;5.33;;
6306;SDS011;3186;54.062;9.962;2023-04-24T14:35:10;6.17;;;5.13;;
6306;SDS011;3186;54.062;9.962;2023-04-24T14:37:36;7.93;;;5.67;;
6306;SDS011;3186;54.062;9.962;2023-04-24T14:40:02;7.23;;;6.07;;
6306;SDS011;3186;54.062;9.962;2023-04-24T14:42:33;5.80;;;5.20;;
6306;SDS011;3186;54.062;9.962;2023-04-24T14:44:59;6.70;;;5.40;;
6306;SDS011;3186;54.062;9.962;2023-04-24T14:47:25;6.70;;;6.07;;
6306;SDS011;3186;54.062;9.962;2023-04-24T14:49:51;6.33;;;5.73;;
6306;SDS011;3186;54.062;9.962;2023-04-24T14:52:17;6.07;;;5.47;;
6306;SDS011;3186;54.062;9.962;2023-04-24T14:54:43;9.00;;;5.60;;
6306;SDS011;3186;54.062;9.962;2023-04-24T14:57:08;5.93;;;5.30;;
6306;SDS011;3186;54.062;9.962;2023-04-24T14:59:34;5.87;;;5.37;;
6306;SDS011;3186;54.062;9.962;2023-04-24T15:02:00;5.30;;;4.80;;
6306;SDS011;3186;54.062;9.962;2023-04-24T15:04:27;5.47;;;4.83;;
6306;SDS011;3186;54.062;9.962;2023-04-24T15:06:53;4.50;;;4.10;;
6306;SDS011;3186;54.062;9.962;2023-04-24T15:09:23;5.50;;;4.20;;
6306;SDS011;3186;54.062;9.962;2023-04-24T15:11:51;6.93;;;5.60;;
6306;SDS011;3186;54.062;9.962;2023-04-24T15:14:17;5.37;;;4.87;;
6306;SDS011;3186;54.062;9.962;2023-04-24T15:16:43;6.17;;;5.60;;
6306;SDS011;3186;54.062;9.962;2023-04-24T15:19:10;6.77;;;5.60;;
6306;SDS011;3186;54.062;9.962;2023-04-24T15:21:36;5.43;;;4.93;;
6306;SDS011;3186;54.062;9.962;2023-04-24T15:24:03;5.40;;;4.90;;
6306;SDS011;3186;54.062;9.962;2023-04-24T15:26:29;5.03;;;4.43;;
6306;SDS011;3186;54.062;9.962;2023-04-24T15:28:55;4.37;;;3.97;;
6306;SDS011;3186;54.062;9.962;2023-04-24T15:31:21;3.97;;;3.57;;
6306;SDS011;3186;54.062;9.962;2023-04-24T15:33:48;3.30;;;3.00;;